Time,TemperatureF,DewpointF,PressureIn,WindDirection,WindDirectionDegrees,WindSpeedMPH,WindSpeedGustMPH,Humidity,HourlyPrecipIn,Conditions,Clouds,dailyrainin,SoftwareType,DateUTC
2013-06-27 00:06:00,59.4,52.2,30.01,SW,225,1.6,1.8,77,0.00,,,0.00,WUHU216HW,2013-06-27 06:06:00,
2013-06-27 00:16:00,59.2,52.0,30.01,South,180,2.0,2.7,77,0.00,,,0.00,WUHU216HW,2013-06-27 06:16:00,
2013-06-27 00:26:00,59.0,52.2,30.01,SSE,158,2.5,4.0,78,0.00,,,0.00,WUHU216HW,2013-06-27 06:26:00,
2013-06-27 00:36:00,58.9,52.0,30.01,SSE,158,2.9,4.5,78,0.00,,,0.00,WUHU216HW,2013-06-27 06:36:00,
2013-06-27 00:46:00,58.9,51.7,30.01,South,180,2.9,4.5,77,0.00,,,0.00,WUHU216HW,2013-06-27 06:46:00,
2013-06-27 00:56:00,58.7,51.5,30.01,SE,135,3.4,4.5,77,0.00,,,0.00,WUHU216HW,2013-06-27 06:56:00,
2013-06-27 01:06:00,58.7,51.1,30.00,ESE,113,1.8,4.7,76,0.00,,,0.00,WUHU216HW,2013-06-27 07:06:00,
2013-06-27 01:16:00,58.7,51.1,30.00,ESE,113,2.5,3.4,76,0.00,,,0.00,WUHU216HW,2013-06-27 07:16:00,
2013-06-27 01:26:00,58.7,50.8,30.01,South,180,1.6,4.0,75,0.00,,,0.00,WUHU216HW,2013-06-27 07:26:00,
2013-06-27 01:36:00,58.7,50.8,30.02,SE,135,2.2,2.5,75,0.00,,,0.00,WUHU216HW,2013-06-27 07:36:00,
2013-06-27 01:46:00,58.7,51.1,30.02,SE,135,1.1,2.9,76,0.00,,,0.00,WUHU216HW,2013-06-27 07:46:00,
2013-06-27 01:57:00,58.5,50.9,30.02,SE,135,0.0,3.6,76,0.00,,,0.00,WUHU216HW,2013-06-27 07:57:00,
2013-06-27 02:07:00,58.3,50.8,30.02,South,180,1.1,1.1,76,0.00,,,0.00,WUHU216HW,2013-06-27 08:07:00,
2013-06-27 02:17:00,58.3,51.1,30.02,SSE,158,2.2,3.4,77,0.00,,,0.00,WUHU216HW,2013-06-27 08:17:00,
2013-06-27 02:27:00,58.3,51.1,30.02,SE,135,1.6,3.8,77,0.00,,,0.00,WUHU216HW,2013-06-27 08:27:00,
2013-06-27 02:37:00,58.3,51.1,30.02,SE,135,1.1,2.5,77,0.00,,,0.00,WUHU216HW,2013-06-27 08:37:00,
2013-06-27 02:47:00,58.1,50.9,30.02,SE,135,1.8,4.7,77,0.00,,,0.00,WUHU216HW,2013-06-27 08:47:00,
2013-06-27 02:57:00,58.0,50.8,30.02,SE,135,1.6,2.9,77,0.00,,,0.00,WUHU216HW,2013-06-27 08:57:00,
2013-06-27 03:07:00,58.0,51.1,30.02,South,180,2.2,4.3,78,0.00,,,0.00,WUHU216HW,2013-06-27 09:07:00,
2013-06-27 03:17:00,57.6,50.8,30.02,SSW,203,3.4,4.9,78,0.00,,,0.00,WUHU216HW,2013-06-27 09:17:00,
2013-06-27 03:27:00,57.6,51.1,30.02,SE,135,4.3,4.5,79,0.00,,,0.00,WUHU216HW,2013-06-27 09:27:00,
2013-06-27 03:37:00,57.4,50.9,30.02,SSE,158,0.9,3.4,79,0.00,,,0.00,WUHU216HW,2013-06-27 09:37:00,
2013-06-27 03:47:00,57.2,50.8,30.02,SW,225,3.1,3.1,79,0.00,,,0.00,WUHU216HW,2013-06-27 09:47:00,
2013-06-27 03:57:00,57.1,50.6,30.02,WSW,248,3.1,3.6,79,0.00,,,0.00,WUHU216HW,2013-06-27 09:57:00,
2013-06-27 04:07:00,56.7,50.2,30.02,SW,225,3.1,4.5,79,0.00,,,0.00,WUHU216HW,2013-06-27 10:07:00,
2013-06-27 04:17:00,56.3,50.2,30.02,SSW,203,1.8,5.1,80,0.00,,,0.00,WUHU216HW,2013-06-27 10:17:00,
2013-06-27 04:27:00,56.0,50.2,30.02,SSW,203,1.8,4.0,81,0.00,,,0.00,WUHU216HW,2013-06-27 10:27:00,
2013-06-27 04:37:00,55.8,50.1,30.02,South,180,2.5,3.4,81,0.00,,,0.00,WUHU216HW,2013-06-27 10:37:00,
2013-06-27 04:47:00,55.6,49.9,30.03,South,180,2.9,2.9,81,0.00,,,0.00,WUHU216HW,2013-06-27 10:47:00,
2013-06-27 04:57:00,55.4,49.7,30.04,SE,135,1.8,1.8,81,0.00,,,0.00,WUHU216HW,2013-06-27 10:57:00,
2013-06-27 05:07:00,55.3,49.5,30.04,SSW,203,2.0,2.0,81,0.00,,,0.00,WUHU216HW,2013-06-27 11:07:00,
2013-06-27 05:17:00,55.1,49.3,30.04,SSE,158,1.1,2.7,81,0.00,,,0.00,WUHU216HW,2013-06-27 11:17:00,
2013-06-27 05:27:00,54.7,49.3,30.04,ESE,113,3.4,3.4,82,0.00,,,0.00,WUHU216HW,2013-06-27 11:27:00,
2013-06-27 05:37:00,54.4,49.0,30.04,SE,135,2.5,2.9,82,0.00,,,0.00,WUHU216HW,2013-06-27 11:37:00,
2013-06-27 05:47:00,54.4,49.0,30.04,SSE,158,1.1,2.5,82,0.00,,,0.00,WUHU216HW,2013-06-27 11:47:00,
2013-06-27 05:57:00,54.2,48.8,30.04,South,180,1.1,2.2,82,0.00,,,0.00,WUHU216HW,2013-06-27 11:57:00,
2013-06-27 06:07:00,54.0,48.3,30.05,SE,135,1.6,2.7,81,0.00,,,0.00,WUHU216HW,2013-06-27 12:07:00,
2013-06-27 06:17:00,54.0,48.6,30.05,SSE,158,2.2,3.1,82,0.00,,,0.00,WUHU216HW,2013-06-27 12:17:00,
2013-06-27 06:27:00,54.4,49.0,30.05,SE,135,1.6,3.1,82,0.00,,,0.00,WUHU216HW,2013-06-27 12:27:00,
2013-06-27 06:37:00,55.4,50.0,30.05,NNE,23,1.6,1.6,82,0.00,,,0.00,WUHU216HW,2013-06-27 12:37:00,
2013-06-27 06:47:00,56.3,50.6,30.05,ENE,68,0.0,1.8,81,0.00,,,0.00,WUHU216HW,2013-06-27 12:47:00,
2013-06-27 06:57:00,57.8,52.0,30.05,NNE,23,1.1,1.6,81,0.00,,,0.00,WUHU216HW,2013-06-27 12:57:00,
2013-06-27 07:07:00,58.3,51.8,30.06,North,0,0.9,1.8,79,0.00,,,0.00,WUHU216HW,2013-06-27 13:07:00,
2013-06-27 07:18:00,58.7,52.2,30.06,NNE,23,2.0,2.0,79,0.00,,,0.00,WUHU216HW,2013-06-27 13:18:00,
2013-06-27 07:28:00,59.4,52.6,30.07,NNW,338,1.3,1.6,78,0.00,,,0.00,WUHU216HW,2013-06-27 13:28:00,
2013-06-27 07:38:00,59.6,52.4,30.07,North,0,0.4,2.5,77,0.00,,,0.00,WUHU216HW,2013-06-27 13:38:00,
2013-06-27 07:48:00,59.8,52.6,30.07,North,0,0.4,1.8,77,0.00,,,0.00,WUHU216HW,2013-06-27 13:48:00,
2013-06-27 07:58:00,60.3,53.1,30.07,NNW,338,1.1,2.5,77,0.00,,,0.00,WUHU216HW,2013-06-27 13:58:00,
2013-06-27 08:08:00,60.7,53.1,30.07,North,0,2.5,2.5,76,0.00,,,0.00,WUHU216HW,2013-06-27 14:08:00,
2013-06-27 08:18:00,61.2,53.3,30.07,NE,45,3.6,3.6,75,0.00,,,0.00,WUHU216HW,2013-06-27 14:18:00,
2013-06-27 08:28:00,61.6,53.2,30.07,North,0,1.3,3.8,74,0.00,,,0.00,WUHU216HW,2013-06-27 14:28:00,
2013-06-27 08:38:00,62.1,53.7,30.07,NNE,23,2.5,3.4,74,0.00,,,0.00,WUHU216HW,2013-06-27 14:38:00,
2013-06-27 08:48:00,62.6,53.8,30.07,North,0,1.8,4.0,73,0.00,,,0.00,WUHU216HW,2013-06-27 14:48:00,
2013-06-27 08:58:00,63.0,54.5,30.07,NNE,23,0.4,3.4,74,0.00,,,0.00,WUHU216HW,2013-06-27 14:58:00,
2013-06-27 09:08:00,63.7,54.9,30.07,NW,315,0.9,3.4,73,0.00,,,0.00,WUHU216HW,2013-06-27 15:08:00,
2013-06-27 09:18:00,64.4,55.3,30.07,NNE,23,1.8,2.7,72,0.00,,,0.00,WUHU216HW,2013-06-27 15:18:00,
2013-06-27 09:28:00,65.0,55.4,30.07,NNW,338,1.8,2.7,71,0.00,,,0.00,WUHU216HW,2013-06-27 15:28:00,
2013-06-27 09:38:00,65.9,56.3,30.07,NNE,23,1.1,1.8,71,0.00,,,0.00,WUHU216HW,2013-06-27 15:38:00,
2013-06-27 09:48:00,67.0,56.4,30.07,NE,45,0.4,2.5,69,0.00,,,0.00,WUHU216HW,2013-06-27 15:48:00,
2013-06-27 09:58:00,68.0,57.1,30.07,SSW,203,0.4,1.8,68,0.00,,,0.00,WUHU216HW,2013-06-27 15:58:00,
2013-06-27 10:08:00,68.0,56.7,30.07,WNW,293,0.9,2.5,67,0.00,,,0.00,WUHU216HW,2013-06-27 16:08:00,
2013-06-27 10:18:00,68.6,56.7,30.07,ENE,68,3.8,3.8,66,0.00,,,0.00,WUHU216HW,2013-06-27 16:18:00,
2013-06-27 10:29:00,68.9,56.7,30.07,NW,315,2.0,4.5,65,0.00,,,0.00,WUHU216HW,2013-06-27 16:29:00,
2013-06-27 10:39:00,69.3,57.0,30.07,North,0,0.9,3.1,65,0.00,,,0.00,WUHU216HW,2013-06-27 16:39:00,
2013-06-27 10:49:00,69.8,57.5,30.07,North,0,0.0,0.9,65,0.00,,,0.00,WUHU216HW,2013-06-27 16:49:00,
2013-06-27 10:59:00,70.0,56.9,30.07,North,0,2.7,5.1,63,0.00,,,0.00,WUHU216HW,2013-06-27 16:59:00,
2013-06-27 11:09:00,70.6,57.3,30.06,SSW,203,0.4,4.0,63,0.00,,,0.00,WUHU216HW,2013-06-27 17:09:00,
2013-06-27 11:19:00,71.3,58.1,30.06,NNE,23,2.5,4.9,63,0.00,,,0.00,WUHU216HW,2013-06-27 17:19:00,
2013-06-27 11:29:00,71.6,58.0,30.06,North,0,3.6,5.4,62,0.00,,,0.00,WUHU216HW,2013-06-27 17:29:00,
2013-06-27 11:39:00,71.6,58.0,30.06,North,0,4.3,5.4,62,0.00,,,0.00,WUHU216HW,2013-06-27 17:39:00,
2013-06-27 11:49:00,72.4,58.6,30.06,North,0,0.0,4.3,62,0.00,,,0.00,WUHU216HW,2013-06-27 17:49:00,
2013-06-27 11:59:00,73.1,58.8,30.06,North,0,0.0,0.0,61,0.00,,,0.00,WUHU216HW,2013-06-27 17:59:00,
2013-06-27 12:09:00,73.8,59.0,30.05,North,0,0.0,0.0,60,0.00,,,0.00,WUHU216HW,2013-06-27 18:09:00,
2013-06-27 12:19:00,74.2,58.4,30.05,North,0,0.0,0.0,58,0.00,,,0.00,WUHU216HW,2013-06-27 18:19:00,
2013-06-27 12:29:00,74.9,58.6,30.05,North,0,0.0,0.0,57,0.00,,,0.00,WUHU216HW,2013-06-27 18:29:00,
2013-06-27 12:39:00,74.7,58.4,30.05,North,0,0.0,0.0,57,0.00,,,0.00,WUHU216HW,2013-06-27 18:39:00,
2013-06-27 12:49:00,74.9,58.6,30.05,North,0,0.0,0.0,57,0.00,,,0.00,WUHU216HW,2013-06-27 18:49:00,
2013-06-27 12:59:00,75.8,59.5,30.04,North,0,0.0,0.0,57,0.00,,,0.00,WUHU216HW,2013-06-27 18:59:00,
2013-06-27 13:09:00,76.0,58.6,30.04,North,0,0.0,0.0,55,0.00,,,0.00,WUHU216HW,2013-06-27 19:09:00,
2013-06-27 13:19:00,76.5,59.1,30.04,North,0,0.0,0.0,55,0.00,,,0.00,WUHU216HW,2013-06-27 19:19:00,
2013-06-27 13:29:00,77.0,59.0,30.04,North,0,0.0,0.0,54,0.00,,,0.00,WUHU216HW,2013-06-27 19:29:00,
2013-06-27 13:39:00,77.2,59.8,30.03,North,0,0.0,0.0,55,0.00,,,0.00,WUHU216HW,2013-06-27 19:39:00,
2013-06-27 13:49:00,77.6,59.6,30.03,North,0,0.0,0.0,54,0.00,,,0.00,WUHU216HW,2013-06-27 19:49:00,
2013-06-27 13:59:00,78.1,59.6,30.03,North,0,0.0,0.0,53,0.00,,,0.00,WUHU216HW,2013-06-27 19:59:00,
2013-06-27 14:09:00,78.3,58.7,30.03,North,0,0.0,0.0,51,0.00,,,0.00,WUHU216HW,2013-06-27 20:09:00,
2013-06-27 14:19:00,78.3,58.2,30.03,NNW,338,4.9,7.2,50,0.00,,,0.00,WUHU216HW,2013-06-27 20:19:00,
2013-06-27 14:29:00,78.7,58.5,30.03,WNW,293,4.5,5.8,50,0.00,,,0.00,WUHU216HW,2013-06-27 20:29:00,
2013-06-27 14:40:00,79.0,58.2,30.03,WNW,293,6.3,7.4,49,0.00,,,0.00,WUHU216HW,2013-06-27 20:40:00,
2013-06-27 14:50:00,79.4,58.0,30.03,North,0,3.1,6.3,48,0.00,,,0.00,WUHU216HW,2013-06-27 20:50:00,
2013-06-27 15:00:00,79.7,57.1,30.02,NNW,338,6.9,7.6,46,0.00,,,0.00,WUHU216HW,2013-06-27 21:00:00,
2013-06-27 15:10:00,79.7,55.8,30.03,NE,45,4.7,9.6,44,0.00,,,0.00,WUHU216HW,2013-06-27 21:10:00,
2013-06-27 15:20:00,80.1,56.2,30.02,NW,315,3.8,8.3,44,0.00,,,0.00,WUHU216HW,2013-06-27 21:20:00,
2013-06-27 15:30:00,79.9,56.6,30.02,WNW,293,4.0,9.2,45,0.00,,,0.00,WUHU216HW,2013-06-27 21:30:00,
2013-06-27 15:40:00,80.6,56.0,30.03,North,0,4.5,6.3,43,0.00,,,0.00,WUHU216HW,2013-06-27 21:40:00,
2013-06-27 15:50:00,80.8,56.2,30.02,WNW,293,2.5,6.7,43,0.00,,,0.00,WUHU216HW,2013-06-27 21:50:00,
2013-06-27 16:00:00,80.8,56.2,30.02,NNE,23,7.2,8.5,43,0.00,,,0.00,WUHU216HW,2013-06-27 22:00:00,
2013-06-27 16:11:00,80.8,56.2,30.02,NNW,338,2.0,7.2,43,0.00,,,0.00,WUHU216HW,2013-06-27 22:11:00,
2013-06-27 16:21:00,81.0,55.1,30.02,NE,45,4.5,7.2,41,0.00,,,0.00,WUHU216HW,2013-06-27 22:21:00,
2013-06-27 16:31:00,81.4,56.1,30.02,NNE,23,4.5,7.8,42,0.00,,,0.00,WUHU216HW,2013-06-27 22:31:00,
2013-06-27 16:41:00,81.5,56.3,30.02,North,0,4.0,5.4,42,0.00,,,0.00,WUHU216HW,2013-06-27 22:41:00,
2013-06-27 16:51:00,81.7,55.8,30.01,NNW,338,3.6,5.6,41,0.00,,,0.00,WUHU216HW,2013-06-27 22:51:00,
2013-06-27 17:01:00,81.7,55.2,30.01,NW,315,5.4,7.4,40,0.00,,,0.00,WUHU216HW,2013-06-27 23:01:00,
2013-06-27 17:11:00,81.7,55.2,30.02,NW,315,1.8,5.8,40,0.00,,,0.00,WUHU216HW,2013-06-27 23:11:00,
2013-06-27 17:21:00,82.1,54.7,30.01,NE,45,3.8,4.5,39,0.00,,,0.00,WUHU216HW,2013-06-27 23:21:00,
2013-06-27 17:31:00,82.4,55.8,30.01,NE,45,4.0,7.6,40,0.00,,,0.00,WUHU216HW,2013-06-27 23:31:00,
2013-06-27 17:41:00,82.6,56.0,30.01,North,0,1.8,6.9,40,0.00,,,0.00,WUHU216HW,2013-06-27 23:41:00,
2013-06-27 17:51:00,82.8,56.2,30.01,NNE,23,4.0,4.7,40,0.00,,,0.00,WUHU216HW,2013-06-27 23:51:00,
2013-06-27 18:01:00,83.2,55.6,30.01,NE,45,4.9,5.8,39,0.00,,,0.00,WUHU216HW,2013-06-28 00:01:00,
2013-06-27 18:12:00,83.3,55.8,30.00,ESE,113,3.8,9.2,39,0.00,,,0.00,WUHU216HW,2013-06-28 00:12:00,
2013-06-27 18:22:00,83.3,55.8,30.00,NE,45,2.7,6.3,39,0.00,,,0.00,WUHU216HW,2013-06-28 00:22:00,
2013-06-27 18:32:00,83.0,54.7,30.00,ENE,68,4.0,6.3,38,0.00,,,0.00,WUHU216HW,2013-06-28 00:32:00,
2013-06-27 18:42:00,83.2,55.6,30.00,NE,45,3.1,4.7,39,0.00,,,0.00,WUHU216HW,2013-06-28 00:42:00,
2013-06-27 18:52:00,83.5,56.0,30.00,ENE,68,4.3,7.4,39,0.00,,,0.00,WUHU216HW,2013-06-28 00:52:00,
2013-06-27 19:02:00,83.7,53.7,30.00,NE,45,4.7,5.6,36,0.00,,,0.00,WUHU216HW,2013-06-28 01:02:00,
2013-06-27 19:12:00,83.3,54.3,30.00,North,0,3.6,5.4,37,0.00,,,0.00,WUHU216HW,2013-06-28 01:12:00,
2013-06-27 19:22:00,83.2,54.1,30.00,North,0,2.5,6.9,37,0.00,,,0.00,WUHU216HW,2013-06-28 01:22:00,
2013-06-27 19:32:00,82.6,52.0,30.00,North,0,2.7,4.0,35,0.00,,,0.00,WUHU216HW,2013-06-28 01:32:00,
2013-06-27 19:42:00,82.8,53.7,30.01,NNW,338,1.3,3.1,37,0.00,,,0.00,WUHU216HW,2013-06-28 01:42:00,
2013-06-27 19:52:00,82.4,54.2,30.01,North,0,0.7,3.8,38,0.00,,,0.00,WUHU216HW,2013-06-28 01:52:00,
2013-06-27 20:03:00,82.1,53.9,30.01,NNE,23,4.9,4.9,38,0.00,,,0.00,WUHU216HW,2013-06-28 02:03:00,
2013-06-27 20:13:00,81.9,52.9,30.01,ENE,68,4.3,4.9,37,0.00,,,0.00,WUHU216HW,2013-06-28 02:13:00,
2013-06-27 20:23:00,81.7,52.0,30.01,NE,45,4.7,6.9,36,0.00,,,0.00,WUHU216HW,2013-06-28 02:23:00,
2013-06-27 20:33:00,81.5,52.7,30.01,NNE,23,3.4,5.8,37,0.00,,,0.00,WUHU216HW,2013-06-28 02:33:00,
2013-06-27 20:43:00,81.2,53.1,30.02,NNE,23,2.5,4.9,38,0.00,,,0.00,WUHU216HW,2013-06-28 02:43:00,
2013-06-27 20:54:00,81.0,53.7,30.02,North,0,3.6,3.6,39,0.00,,,0.00,WUHU216HW,2013-06-28 02:54:00,
2013-06-27 21:04:00,80.5,53.3,30.02,NE,45,1.3,3.4,39,0.00,,,0.00,WUHU216HW,2013-06-28 03:04:00,
2013-06-27 21:14:00,79.9,52.7,30.03,ENE,68,2.5,2.5,39,0.00,,,0.00,WUHU216HW,2013-06-28 03:14:00,
2013-06-27 21:24:00,79.2,52.1,30.03,NE,45,3.1,3.1,39,0.00,,,0.00,WUHU216HW,2013-06-28 03:24:00,
2013-06-27 21:35:00,78.5,51.5,30.03,WNW,293,0.4,1.8,39,0.00,,,0.00,WUHU216HW,2013-06-28 03:35:00,
2013-06-27 21:45:00,77.8,51.6,30.04,NW,315,1.1,1.8,40,0.00,,,0.00,WUHU216HW,2013-06-28 03:45:00,
2013-06-27 21:55:00,77.0,51.6,30.04,WSW,248,0.9,2.7,41,0.00,,,0.00,WUHU216HW,2013-06-28 03:55:00,
2013-06-27 22:05:00,76.1,50.8,30.05,NW,315,2.0,4.7,41,0.00,,,0.00,WUHU216HW,2013-06-28 04:05:00,
2013-06-27 22:15:00,75.2,50.6,30.05,North,0,0.0,1.1,42,0.00,,,0.00,WUHU216HW,2013-06-28 04:15:00,
2013-06-27 22:25:00,74.5,49.9,30.05,West,270,0.7,1.1,42,0.00,,,0.00,WUHU216HW,2013-06-28 04:25:00,
2013-06-27 22:35:00,73.6,50.2,30.05,SE,135,1.3,1.3,44,0.00,,,0.00,WUHU216HW,2013-06-28 04:35:00,
2013-06-27 22:45:00,72.7,50.1,30.06,ESE,113,0.4,2.2,45,0.00,,,0.00,WUHU216HW,2013-06-28 04:45:00,
2013-06-27 22:55:00,72.0,50.0,30.05,ESE,113,0.0,1.1,46,0.00,,,0.00,WUHU216HW,2013-06-28 04:55:00,
2013-06-27 23:05:00,71.6,50.2,30.06,SE,135,1.6,1.8,47,0.00,,,0.00,WUHU216HW,2013-06-28 05:05:00,
2013-06-27 23:15:00,70.9,49.6,30.06,SSE,158,0.4,1.8,47,0.00,,,0.00,WUHU216HW,2013-06-28 05:15:00,
2013-06-27 23:25:00,70.2,49.5,30.07,East,90,1.6,4.3,48,0.00,,,0.00,WUHU216HW,2013-06-28 05:25:00,
2013-06-27 23:35:00,69.8,49.2,30.07,SE,135,0.4,0.9,48,0.00,,,0.00,WUHU216HW,2013-06-28 05:35:00,
2013-06-27 23:45:00,69.5,48.9,30.07,SSE,158,0.0,0.7,48,0.00,,,0.00,WUHU216HW,2013-06-28 05:45:00,
2013-06-27 23:56:00,69.1,49.1,30.07,SW,225,1.8,1.8,49,0.00,,,0.00,WUHU216HW,2013-06-28 05:56:00,